Time;durP1;ratioP1;P1;durP2;ratioP2;P2;SDS_P1;SDS_P2;PMS_P1;PMS_P2;Temp;Humidity;BMP_temperature;BMP_pressure;BME280_temperature;BME280_humidity;BME280_pressure;Samples;Min_cycle;Max_cycle;Signal;HPM_P1;HPM_P2
2022/07/05 00:02:20;;;;;;;;;;;25.30;51.80;;;;;;5000710;28;19934;-72
2022/07/05 00:04:47;;;;;;;;;;;25.30;52.00;;;;;;4999836;28;19929;-71
2022/07/05 00:07:20;;;;;;;;;;;25.20;51.90;;;;;;4998404;28;19964;-72
2022/07/05 00:09:47;;;;;;;;;;;25.20;52.00;;;;;;4998285;28;19929;-75
2022/07/05 00:12:15;;;;;;;;;;;25.10;51.90;;;;;;5001473;28;20386;-70
2022/07/05 00:14:42;;;;;;;;;;;25.10;52.30;;;;;;5001140;28;19930;-69
2022/07/05 00:17:09;;;;;;;;;;;25.00;52.30;;;;;;4997694;28;19930;-73
2022/07/05 00:19:36;;;;;;;;;;;24.90;52.30;;;;;;5004859;28;20622;-71
2022/07/05 00:22:03;;;;;;;;;;;24.90;52.20;;;;;;5007273;28;21009;-70
2022/07/05 00:24:29;;;;;;;;;;;24.90;52.30;;;;;;5003131;28;20527;-76
2022/07/05 00:26:56;;;;;;;;;;;24.90;52.20;;;;;;5005533;28;19936;-72
2022/07/05 00:29:24;;;;;;;;;;;24.80;52.50;;;;;;5005199;28;19933;-71
2022/07/05 00:31:50;;;;;;;;;;;24.70;52.70;;;;;;5001990;28;20511;-71
2022/07/05 00:34:17;;;;;;;;;;;24.70;52.50;;;;;;5003242;28;19930;-73
2022/07/05 00:36:44;;;;;;;;;;;24.70;52.50;;;;;;5005093;28;20389;-75
2022/07/05 00:39:11;;;;;;;;;;;24.60;52.30;;;;;;5001068;28;20353;-73
2022/07/05 00:41:38;;;;;;;;;;;24.60;52.60;;;;;;5003828;28;19936;-72
2022/07/05 00:44:06;;;;;;;;;;;24.50;52.60;;;;;;5002039;28;19929;-74
2022/07/05 00:46:34;;;;;;;;;;;24.50;52.40;;;;;;5003397;28;20597;-76
2022/07/05 00:49:01;;;;;;;;;;;24.40;52.40;;;;;;5003376;28;19940;-75
2022/07/05 00:51:30;;;;;;;;;;;24.40;52.40;;;;;;5002804;28;19934;-74
2022/07/05 00:53:56;;;;;;;;;;;24.30;52.20;;;;;;5003922;28;20127;-73
2022/07/05 00:56:24;;;;;;;;;;;24.30;52.30;;;;;;5004707;28;19936;-73
2022/07/05 00:58:50;;;;;;;;;;;24.20;52.20;;;;;;5003960;28;19938;-72
2022/07/05 01:01:17;;;;;;;;;;;24.20;52.30;;;;;;5002067;28;19957;-70
2022/07/05 01:03:46;;;;;;;;;;;24.20;52.30;;;;;;5006139;28;19929;-70
2022/07/05 01:06:13;;;;;;;;;;;24.10;52.20;;;;;;5006390;28;19937;-71
2022/07/05 01:08:40;;;;;;;;;;;24.10;52.40;;;;;;5004806;28;20401;-73
2022/07/05 01:11:07;;;;;;;;;;;24.00;52.30;;;;;;5001563;28;20432;-73
2022/07/05 01:13:34;;;;;;;;;;;24.00;52.30;;;;;;5005375;28;19929;-74
2022/07/05 01:16:01;;;;;;;;;;;23.90;52.30;;;;;;4998996;28;19951;-74
2022/07/05 01:18:28;;;;;;;;;;;23.90;52.40;;;;;;5003897;28;20325;-74
2022/07/05 01:20:56;;;;;;;;;;;23.80;52.40;;;;;;5002796;28;19929;-72
2022/07/05 01:23:27;;;;;;;;;;;23.80;52.50;;;;;;5002855;28;19933;-72
2022/07/05 01:25:54;;;;;;;;;;;23.70;52.60;;;;;;5000052;28;20404;-72
2022/07/05 01:28:21;;;;;;;;;;;23.70;52.40;;;;;;5003634;28;20036;-74
2022/07/05 01:30:48;;;;;;;;;;;23.70;52.40;;;;;;5000406;28;19929;-72
2022/07/05 01:33:15;;;;;;;;;;;23.60;52.70;;;;;;5004313;28;19930;-74
2022/07/05 01:35:41;;;;;;;;;;;23.60;52.60;;;;;;5000743;28;19929;-73
2022/07/05 01:38:08;;;;;;;;;;;23.50;52.60;;;;;;5002588;28;19934;-74
2022/07/05 01:40:36;;;;;;;;;;;23.50;52.70;;;;;;5003698;28;19932;-73
2022/07/05 01:43:03;;;;;;;;;;;23.50;52.60;;;;;;5002771;28;19929;-73
2022/07/05 01:45:42;;;;;;;;;;;23.40;52.70;;;;;;5002813;28;19936;-74
2022/07/05 01:48:10;;;;;;;;;;;23.30;52.70;;;;;;5003023;28;19936;-73
2022/07/05 01:50:39;;;;;;;;;;;23.30;52.60;;;;;;5004146;28;19960;-73
2022/07/05 01:53:05;;;;;;;;;;;23.30;52.90;;;;;;5004107;28;20457;-74
2022/07/05 01:55:32;;;;;;;;;;;23.20;52.80;;;;;;5002181;28;19933;-73
2022/07/05 01:58:00;;;;;;;;;;;23.20;53.00;;;;;;5004570;28;20167;-74
2022/07/05 02:00:27;;;;;;;;;;;23.20;53.00;;;;;;5004238;28;19937;-75
2022/07/05 02:02:54;;;;;;;;;;;23.10;53.10;;;;;;5003522;28;19930;-73
2022/07/05 02:05:20;;;;;;;;;;;23.10;53.20;;;;;;5003126;28;20451;-71
2022/07/05 02:07:47;;;;;;;;;;;23.00;53.20;;;;;;5004450;28;20056;-71
2022/07/05 02:10:14;;;;;;;;;;;23.00;53.30;;;;;;5000937;28;20036;-72
2022/07/05 02:12:41;;;;;;;;;;;23.00;53.30;;;;;;5003830;28;19940;-72
2022/07/05 02:15:10;;;;;;;;;;;22.90;53.30;;;;;;5003234;28;19993;-74
2022/07/05 02:17:37;;;;;;;;;;;22.90;53.40;;;;;;5002075;28;19936;-75
2022/07/05 02:20:05;;;;;;;;;;;22.80;53.50;;;;;;5002990;28;19929;-71
2022/07/05 02:22:32;;;;;;;;;;;22.80;53.60;;;;;;5004263;28;19972;-70
2022/07/05 02:24:59;;;;;;;;;;;22.80;53.60;;;;;;5001957;28;20460;-73
2022/07/05 02:27:26;;;;;;;;;;;22.70;53.60;;;;;;5004561;28;19936;-72
2022/07/05 02:29:53;;;;;;;;;;;22.70;53.80;;;;;;5001480;28;20019;-71
2022/07/05 02:32:21;;;;;;;;;;;22.70;53.70;;;;;;5002494;28;19983;-72
2022/07/05 02:34:47;;;;;;;;;;;22.60;53.90;;;;;;5004856;28;20555;-71
2022/07/05 02:37:14;;;;;;;;;;;22.50;53.80;;;;;;5004303;28;19960;-70
2022/07/05 02:39:40;;;;;;;;;;;22.50;54.00;;;;;;5003468;28;19940;-72
2022/07/05 02:42:07;;;;;;;;;;;22.50;54.10;;;;;;5006618;28;19929;-72
2022/07/05 02:44:34;;;;;;;;;;;22.40;54.10;;;;;;5005673;28;19936;-71
2022/07/05 02:47:01;;;;;;;;;;;22.40;54.20;;;;;;5004798;28;20049;-74
2022/07/05 02:49:29;;;;;;;;;;;22.30;54.30;;;;;;5003299;28;19929;-71
2022/07/05 02:51:55;;;;;;;;;;;22.30;54.40;;;;;;5003467;28;19933;-73
2022/07/05 02:54:22;;;;;;;;;;;22.30;54.50;;;;;;5006553;28;19929;-72
2022/07/05 02:56:49;;;;;;;;;;;22.30;54.60;;;;;;5003229;28;20414;-72
2022/07/05 02:59:16;;;;;;;;;;;22.20;54.60;;;;;;5007953;28;19937;-72
2022/07/05 03:01:42;;;;;;;;;;;22.20;54.70;;;;;;5004609;28;19929;-70
2022/07/05 03:04:09;;;;;;;;;;;22.20;54.80;;;;;;5003366;28;19941;-72
2022/07/05 03:06:37;;;;;;;;;;;22.10;54.90;;;;;;5002756;28;19929;-70
2022/07/05 03:09:04;;;;;;;;;;;22.10;55.00;;;;;;5005769;28;19936;-73
2022/07/05 03:11:31;;;;;;;;;;;22.10;55.00;;;;;;5000251;28;19934;-71
2022/07/05 03:13:57;;;;;;;;;;;22.00;55.00;;;;;;5001514;28;19976;-71
2022/07/05 03:16:24;;;;;;;;;;;22.00;55.10;;;;;;4999102;28;19979;-72
2022/07/05 03:18:51;;;;;;;;;;;21.90;55.10;;;;;;4997989;28;20036;-71
2022/07/05 03:21:17;;;;;;;;;;;21.90;55.20;;;;;;5001087;28;19933;-71
2022/07/05 03:23:45;;;;;;;;;;;21.80;55.20;;;;;;5004773;28;19929;-70
2022/07/05 03:26:12;;;;;;;;;;;21.80;55.40;;;;;;5004018;28;20456;-71
2022/07/05 03:28:38;;;;;;;;;;;21.80;55.40;;;;;;5002002;28;20672;-72
2022/07/05 03:31:05;;;;;;;;;;;21.70;55.40;;;;;;4999558;28;19929;-72
2022/07/05 03:33:32;;;;;;;;;;;21.70;55.50;;;;;;4999359;28;20461;-76
2022/07/05 03:35:58;;;;;;;;;;;21.70;55.60;;;;;;4999531;28;19936;-71
2022/07/05 03:38:25;;;;;;;;;;;21.60;55.50;;;;;;4998317;28;19933;-71
2022/07/05 03:40:53;;;;;;;;;;;21.60;55.70;;;;;;4998813;28;19979;-73
2022/07/05 03:43:19;;;;;;;;;;;21.60;55.80;;;;;;4998016;28;19929;-70
2022/07/05 03:45:46;;;;;;;;;;;21.50;55.80;;;;;;4999541;28;19933;-71
2022/07/05 03:48:12;;;;;;;;;;;21.50;55.90;;;;;;4998665;28;20651;-70
2022/07/05 03:50:39;;;;;;;;;;;21.40;55.90;;;;;;5000459;28;20009;-74
2022/07/05 03:53:05;;;;;;;;;;;21.40;55.90;;;;;;5000384;28;19929;-71
2022/07/05 03:55:32;;;;;;;;;;;21.40;56.00;;;;;;5003064;28;20425;-73
2022/07/05 03:58:00;;;;;;;;;;;21.40;56.10;;;;;;5004063;28;19936;-71
2022/07/05 04:00:26;;;;;;;;;;;21.30;56.20;;;;;;5007713;28;19937;-71
2022/07/05 04:02:53;;;;;;;;;;;21.30;56.30;;;;;;5004067;28;19929;-70
2022/07/05 04:05:19;;;;;;;;;;;21.30;56.50;;;;;;5002897;28;19940;-72
2022/07/05 04:07:49;;;;;;;;;;;21.20;56.50;;;;;;5003203;28;19929;-72
2022/07/05 04:10:16;;;;;;;;;;;21.20;56.50;;;;;;5003656;28;20024;-72
2022/07/05 04:12:43;;;;;;;;;;;21.20;56.60;;;;;;5003143;28;21304;-70
2022/07/05 04:15:11;;;;;;;;;;;21.20;56.70;;;;;;5004120;28;20323;-73
2022/07/05 04:17:46;;;;;;;;;;;21.10;56.70;;;;;;5001230;28;19930;-72
2022/07/05 04:20:12;;;;;;;;;;;21.10;56.70;;;;;;5002792;28;19949;-73
2022/07/05 04:22:39;;;;;;;;;;;21.00;56.70;;;;;;5004206;28;19930;-73
2022/07/05 04:25:18;;;;;;;;;;;21.00;56.80;;;;;;5001644;28;19929;-69
2022/07/05 04:27:45;;;;;;;;;;;21.00;56.90;;;;;;5007997;28;19937;-72
2022/07/05 04:30:13;;;;;;;;;;;20.90;56.90;;;;;;5002394;28;20309;-71
2022/07/05 04:32:39;;;;;;;;;;;20.90;57.00;;;;;;5001114;28;19937;-75
2022/07/05 04:35:06;;;;;;;;;;;20.90;57.10;;;;;;5001318;28;19962;-68
2022/07/05 04:37:33;;;;;;;;;;;20.90;57.20;;;;;;5005046;28;20409;-69
2022/07/05 04:39:59;;;;;;;;;;;20.80;57.20;;;;;;4998311;28;19936;-71
2022/07/05 04:42:26;;;;;;;;;;;20.80;57.30;;;;;;5010400;28;19929;-71
2022/07/05 04:44:52;;;;;;;;;;;20.80;57.40;;;;;;5001306;28;19945;-71
2022/07/05 04:47:20;;;;;;;;;;;20.80;57.40;;;;;;5004461;28;20015;-70
2022/07/05 04:49:47;;;;;;;;;;;20.70;57.50;;;;;;5002567;28;19933;-72
2022/07/05 04:52:13;;;;;;;;;;;20.70;57.60;;;;;;5002089;28;19929;-70
2022/07/05 04:54:40;;;;;;;;;;;20.70;57.70;;;;;;4998707;28;19930;-72
2022/07/05 04:57:07;;;;;;;;;;;20.70;57.80;;;;;;5000814;28;19937;-74
2022/07/05 04:59:33;;;;;;;;;;;20.60;57.90;;;;;;5003923;28;19929;-77
2022/07/05 05:02:00;;;;;;;;;;;20.50;59.60;;;;;;5003081;28;20020;-72
2022/07/05 05:04:28;;;;;;;;;;;20.20;61.10;;;;;;4999941;28;19930;-73
2022/07/05 05:06:54;;;;;;;;;;;20.10;61.60;;;;;;5004812;28;19991;-73
2022/07/05 05:09:21;;;;;;;;;;;20.00;61.90;;;;;;5002601;28;19929;-73
2022/07/05 05:11:48;;;;;;;;;;;20.00;61.90;;;;;;5006694;28;20016;-72
2022/07/05 05:14:14;;;;;;;;;;;20.00;61.70;;;;;;5004187;28;19960;-74
2022/07/05 05:16:41;;;;;;;;;;;20.00;61.40;;;;;;5003672;28;19937;-71
2022/07/05 05:19:07;;;;;;;;;;;20.00;61.20;;;;;;5004655;28;20675;-76
2022/07/05 05:21:35;;;;;;;;;;;20.00;61.00;;;;;;5004743;28;19929;-76
2022/07/05 05:24:02;;;;;;;;;;;20.00;60.80;;;;;;5004397;28;19929;-74
2022/07/05 05:26:29;;;;;;;;;;;20.10;60.80;;;;;;5003723;28;19930;-73
2022/07/05 05:28:55;;;;;;;;;;;20.10;60.70;;;;;;5004220;28;19929;-73
2022/07/05 05:31:22;;;;;;;;;;;20.10;60.80;;;;;;5001886;28;19933;-74
2022/07/05 05:33:48;;;;;;;;;;;20.10;60.80;;;;;;5002301;28;19934;-75
2022/07/05 05:36:15;;;;;;;;;;;20.10;60.70;;;;;;5007716;28;19956;-76
2022/07/05 05:38:43;;;;;;;;;;;20.10;60.60;;;;;;5006953;28;19933;-72
2022/07/05 05:41:09;;;;;;;;;;;20.10;60.40;;;;;;5004809;28;20520;-74
2022/07/05 05:43:36;;;;;;;;;;;20.10;60.30;;;;;;5005462;28;19933;-75
2022/07/05 05:46:03;;;;;;;;;;;20.10;60.20;;;;;;5003146;28;19932;-76
2022/07/05 05:48:30;;;;;;;;;;;20.20;60.20;;;;;;5002392;28;19944;-72
2022/07/05 05:50:57;;;;;;;;;;;20.20;60.10;;;;;;5007952;28;20286;-74
2022/07/05 05:53:23;;;;;;;;;;;20.20;60.00;;;;;;5005769;28;19948;-77
2022/07/05 05:55:51;;;;;;;;;;;20.20;60.00;;;;;;5005472;28;20141;-74
2022/07/05 05:58:18;;;;;;;;;;;20.20;59.90;;;;;;5006554;28;19929;-73
2022/07/05 06:00:47;;;;;;;;;;;20.20;59.80;;;;;;5006439;28;20400;-74
2022/07/05 06:03:15;;;;;;;;;;;20.20;59.70;;;;;;5004667;28;19925;-72
2022/07/05 06:05:41;;;;;;;;;;;20.20;59.70;;;;;;5002544;28;19991;-71
2022/07/05 06:08:08;;;;;;;;;;;20.30;59.70;;;;;;5007973;28;19933;-74
2022/07/05 06:10:35;;;;;;;;;;;20.30;59.50;;;;;;5008791;28;19925;-73
2022/07/05 06:13:06;;;;;;;;;;;20.30;59.50;;;;;;5004169;28;19930;-75
2022/07/05 06:15:32;;;;;;;;;;;20.30;59.50;;;;;;5005917;28;19945;-74
2022/07/05 06:17:59;;;;;;;;;;;20.30;59.40;;;;;;5003662;28;19980;-76
2022/07/05 06:20:26;;;;;;;;;;;20.30;59.30;;;;;;5009437;28;19937;-74
2022/07/05 06:22:53;;;;;;;;;;;20.30;59.30;;;;;;5013185;28;19940;-74
2022/07/05 06:25:20;;;;;;;;;;;20.30;59.80;;;;;;5005052;28;19949;-73
2022/07/05 06:27:47;;;;;;;;;;;20.30;59.10;;;;;;5016577;28;19929;-74
2022/07/05 06:30:16;;;;;;;;;;;20.40;59.10;;;;;;5007235;28;19933;-72
2022/07/05 06:32:43;;;;;;;;;;;20.40;59.10;;;;;;4999729;28;19933;-72
2022/07/05 06:35:09;;;;;;;;;;;20.40;59.00;;;;;;5004383;28;19929;-76
2022/07/05 06:37:43;;;;;;;;;;;20.30;58.90;;;;;;5006614;28;19966;-72
2022/07/05 06:40:11;;;;;;;;;;;20.40;58.90;;;;;;5005391;28;20662;-75
2022/07/05 06:42:37;;;;;;;;;;;20.40;58.90;;;;;;5004340;28;19930;-73
2022/07/05 06:45:04;;;;;;;;;;;20.40;58.90;;;;;;5006783;28;19952;-74
2022/07/05 06:47:32;;;;;;;;;;;20.40;58.90;;;;;;4997794;28;20496;-72
2022/07/05 06:49:59;;;;;;;;;;;20.40;58.70;;;;;;5000091;28;19929;-72
2022/07/05 06:52:26;;;;;;;;;;;20.50;58.70;;;;;;5001711;28;19926;-72
2022/07/05 06:54:52;;;;;;;;;;;20.50;58.60;;;;;;4996618;28;20310;-74
2022/07/05 06:57:19;;;;;;;;;;;20.50;58.60;;;;;;4994749;28;19925;-72
2022/07/05 06:59:46;;;;;;;;;;;20.50;58.50;;;;;;5004715;28;19936;-74
2022/07/05 07:02:13;;;;;;;;;;;20.50;58.50;;;;;;5005094;28;19937;-75
2022/07/05 07:04:41;;;;;;;;;;;20.50;58.30;;;;;;4991207;28;19930;-76
2022/07/05 07:09:17;;;;;;;;;;;20.50;58.30;;;;;;4992770;28;19933;-77
2022/07/05 07:09:55;;;;;;;;;;;20.60;58.30;;;;;;4996674;28;19933;-75
2022/07/05 07:12:22;;;;;;;;;;;20.60;58.20;;;;;;4996406;28;19925;-78
2022/07/05 07:14:48;;;;;;;;;;;20.60;58.20;;;;;;5002314;28;19989;-77
2022/07/05 07:17:15;;;;;;;;;;;20.60;58.10;;;;;;4999795;28;19999;-73
2022/07/05 07:19:43;;;;;;;;;;;20.60;58.10;;;;;;5000541;28;19968;-73
2022/07/05 07:22:10;;;;;;;;;;;20.60;58.10;;;;;;5000892;28;19956;-73
2022/07/05 07:24:36;;;;;;;;;;;20.60;58.10;;;;;;4999546;28;19936;-73
2022/07/05 07:27:07;;;;;;;;;;;20.60;58.10;;;;;;4999690;28;19934;-72
2022/07/05 07:29:36;;;;;;;;;;;20.70;58.00;;;;;;5003196;28;19929;-72
2022/07/05 07:32:03;;;;;;;;;;;20.70;58.10;;;;;;5000638;28;19940;-72
2022/07/05 07:34:30;;;;;;;;;;;20.70;57.90;;;;;;4998094;28;19933;-77
2022/07/05 07:36:58;;;;;;;;;;;20.70;57.90;;;;;;5000928;28;19933;-76
2022/07/05 07:39:25;;;;;;;;;;;20.70;57.70;;;;;;4997362;28;19936;-71
2022/07/05 07:41:52;;;;;;;;;;;20.80;57.60;;;;;;5000955;28;20022;-76
2022/07/05 07:44:19;;;;;;;;;;;20.80;57.60;;;;;;5002361;28;19933;-75
2022/07/05 07:46:46;;;;;;;;;;;20.80;57.30;;;;;;5001403;28;19956;-73
2022/07/05 07:49:13;;;;;;;;;;;20.80;57.20;;;;;;4998490;28;19933;-76
2022/07/05 07:51:39;;;;;;;;;;;20.80;57.30;;;;;;5001038;28;19929;-74
2022/07/05 07:54:07;;;;;;;;;;;20.90;57.20;;;;;;5001762;28;20936;-74
2022/07/05 07:56:34;;;;;;;;;;;20.90;57.20;;;;;;4998785;28;19933;-73
2022/07/05 07:59:00;;;;;;;;;;;20.90;56.90;;;;;;4998742;28;19929;-75
2022/07/05 08:01:27;;;;;;;;;;;20.90;56.90;;;;;;4998765;28;19941;-72
2022/07/05 08:03:54;;;;;;;;;;;20.90;56.80;;;;;;4999595;28;19937;-75
2022/07/05 08:06:20;;;;;;;;;;;21.00;56.80;;;;;;4998952;28;19936;-75
2022/07/05 08:08:47;;;;;;;;;;;21.00;56.60;;;;;;5004613;28;19930;-74
2022/07/05 08:11:15;;;;;;;;;;;21.10;56.50;;;;;;4999156;28;19929;-76
2022/07/05 08:13:42;;;;;;;;;;;21.10;56.50;;;;;;5002219;28;19985;-74
2022/07/05 08:16:09;;;;;;;;;;;21.10;56.60;;;;;;4997433;28;19929;-76
2022/07/05 08:21:32;;;;;;;;;;;21.10;56.30;;;;;;4995895;28;19932;-74
2022/07/05 08:23:59;;;;;;;;;;;21.20;56.30;;;;;;5001420;28;19929;-77
2022/07/05 08:26:27;;;;;;;;;;;21.20;56.30;;;;;;5004337;28;19969;-74
2022/07/05 08:28:54;;;;;;;;;;;21.30;56.40;;;;;;4990832;28;19929;-74
2022/07/05 08:31:21;;;;;;;;;;;21.20;56.40;;;;;;4996351;28;19933;-78
2022/07/05 08:33:48;;;;;;;;;;;21.30;56.40;;;;;;5001254;28;19933;-74
2022/07/05 08:36:14;;;;;;;;;;;21.30;56.20;;;;;;4998656;28;20382;-74
2022/07/05 08:38:41;;;;;;;;;;;21.30;55.90;;;;;;5002371;28;19929;-74
2022/07/05 08:41:08;;;;;;;;;;;21.40;56.00;;;;;;5002247;28;20437;-74
2022/07/05 08:43:37;;;;;;;;;;;21.40;55.90;;;;;;5007555;28;19930;-77
2022/07/05 08:46:06;;;;;;;;;;;21.40;55.90;;;;;;5005346;28;20453;-76
2022/07/05 08:48:33;;;;;;;;;;;21.50;55.90;;;;;;5003102;28;20054;-76
2022/07/05 08:51:00;;;;;;;;;;;21.50;55.80;;;;;;5006041;28;20318;-76
2022/07/05 08:53:27;;;;;;;;;;;21.50;55.80;;;;;;4997041;28;22096;-72
2022/07/05 08:55:53;;;;;;;;;;;21.60;55.90;;;;;;5000683;28;20542;-74
2022/07/05 08:58:20;;;;;;;;;;;21.60;55.50;;;;;;5006145;28;19940;-72
2022/07/05 09:00:48;;;;;;;;;;;21.70;55.60;;;;;;5006534;28;19936;-73
2022/07/05 09:03:15;;;;;;;;;;;21.70;55.60;;;;;;5003455;28;19938;-72
2022/07/05 09:05:43;;;;;;;;;;;21.80;55.50;;;;;;5003501;28;19930;-72
2022/07/05 09:08:10;;;;;;;;;;;21.80;55.50;;;;;;5002286;28;19940;-75
2022/07/05 09:10:38;;;;;;;;;;;21.80;55.30;;;;;;5004553;28;19933;-73
2022/07/05 09:13:05;;;;;;;;;;;21.90;55.30;;;;;;4998558;28;19933;-74
2022/07/05 09:15:31;;;;;;;;;;;21.90;55.10;;;;;;5000017;28;19936;-74
2022/07/05 09:17:59;;;;;;;;;;;22.00;55.00;;;;;;5001128;28;19933;-75
2022/07/05 09:20:27;;;;;;;;;;;22.00;54.90;;;;;;5009091;28;19936;-74
2022/07/05 09:22:55;;;;;;;;;;;22.00;54.80;;;;;;5005988;28;19945;-66
2022/07/05 09:25:23;;;;;;;;;;;22.10;54.80;;;;;;5008558;28;19930;-66
2022/07/05 09:27:51;;;;;;;;;;;22.10;54.50;;;;;;5010859;28;19940;-64
2022/07/05 09:30:28;;;;;;;;;;;22.20;54.20;;;;;;5010619;28;19929;-65
2022/07/05 09:33:02;;;;;;;;;;;22.20;54.00;;;;;;5009891;28;20032;-68
2022/07/05 09:35:29;;;;;;;;;;;22.30;53.80;;;;;;5010140;28;20024;-66
2022/07/05 09:37:55;;;;;;;;;;;22.30;53.70;;;;;;5006309;28;19961;-66
2022/07/05 09:40:22;;;;;;;;;;;22.40;53.90;;;;;;5000024;28;20477;-66
2022/07/05 09:42:48;;;;;;;;;;;22.40;54.00;;;;;;5006655;28;20389;-64
2022/07/05 09:45:22;;;;;;;;;;;22.50;53.90;;;;;;5006370;28;19936;-67
2022/07/05 09:47:48;;;;;;;;;;;22.50;53.60;;;;;;5008411;28;20285;-65
2022/07/05 09:50:33;;;;;;;;;;;22.60;53.50;;;;;;5006061;28;19929;-66
2022/07/05 09:52:59;;;;;;;;;;;22.70;53.00;;;;;;5006289;28;19929;-68
2022/07/05 09:55:26;;;;;;;;;;;22.80;53.00;;;;;;5000376;28;19930;-68
2022/07/05 09:57:53;;;;;;;;;;;22.80;52.90;;;;;;5005746;28;19929;-67
2022/07/05 10:00:21;;;;;;;;;;;22.90;52.70;;;;;;5004814;28;19941;-65
2022/07/05 10:02:48;;;;;;;;;;;23.00;52.50;;;;;;5005436;28;19929;-65
2022/07/05 10:05:17;;;;;;;;;;;23.00;52.30;;;;;;5003829;28;19960;-65
2022/07/05 10:07:45;;;;;;;;;;;23.10;52.00;;;;;;5007106;28;20623;-66
2022/07/05 10:10:13;;;;;;;;;;;23.10;51.80;;;;;;5000995;28;19930;-68
2022/07/05 10:12:40;;;;;;;;;;;23.30;51.50;;;;;;5007490;28;19933;-64
2022/07/05 10:15:08;;;;;;;;;;;23.30;51.00;;;;;;5003653;28;19976;-66
2022/07/05 10:17:36;;;;;;;;;;;23.40;50.60;;;;;;5006319;28;19934;-67
2022/07/05 10:20:04;;;;;;;;;;;23.50;50.30;;;;;;5002502;28;19934;-67
2022/07/05 10:22:32;;;;;;;;;;;23.50;50.00;;;;;;5010042;28;20329;-66
2022/07/05 10:25:01;;;;;;;;;;;23.60;50.00;;;;;;5007307;28;19936;-66
2022/07/05 10:27:28;;;;;;;;;;;23.70;50.70;;;;;;5008246;28;20008;-66
2022/07/05 10:29:56;;;;;;;;;;;23.70;49.90;;;;;;5009828;28;20020;-65
2022/07/05 10:32:23;;;;;;;;;;;23.80;49.70;;;;;;5007152;28;19932;-67
2022/07/05 10:34:51;;;;;;;;;;;23.90;48.80;;;;;;5008228;28;20481;-65
2022/07/05 10:37:17;;;;;;;;;;;24.00;48.70;;;;;;5008613;28;19987;-68
2022/07/05 10:39:45;;;;;;;;;;;24.10;49.20;;;;;;5006861;28;19936;-67
2022/07/05 10:42:12;;;;;;;;;;;24.10;48.70;;;;;;5008591;28;19933;-68
2022/07/05 10:44:39;;;;;;;;;;;24.20;48.10;;;;;;5011167;28;19940;-65
2022/07/05 10:47:10;;;;;;;;;;;24.20;48.20;;;;;;5005482;28;19937;-69
2022/07/05 10:49:38;;;;;;;;;;;24.30;48.50;;;;;;5004622;28;21518;-67
2022/07/05 10:52:05;;;;;;;;;;;24.40;48.60;;;;;;5006425;28;19934;-68
2022/07/05 10:54:32;;;;;;;;;;;24.50;47.90;;;;;;5009075;28;19937;-67
2022/07/05 10:57:17;;;;;;;;;;;24.50;47.70;;;;;;5006584;28;20804;-67
2022/07/05 11:00:03;;;;;;;;;;;24.60;47.90;;;;;;5015907;28;20635;-68
2022/07/05 11:02:30;;;;;;;;;;;24.70;47.50;;;;;;5006143;28;20016;-68
2022/07/05 11:04:57;;;;;;;;;;;24.70;47.20;;;;;;5011960;28;20441;-67
2022/07/05 11:07:38;;;;;;;;;;;24.80;46.50;;;;;;5012361;28;19940;-67
2022/07/05 11:10:07;;;;;;;;;;;24.90;46.50;;;;;;5005665;28;20649;-67
2022/07/05 11:12:37;;;;;;;;;;;25.00;47.00;;;;;;5005941;28;19933;-67
2022/07/05 11:15:08;;;;;;;;;;;25.10;47.20;;;;;;5007089;28;20015;-68
2022/07/05 11:17:36;;;;;;;;;;;25.10;46.90;;;;;;4998345;28;19945;-65
2022/07/05 11:20:05;;;;;;;;;;;25.20;45.70;;;;;;5003567;28;19930;-68
2022/07/05 11:22:33;;;;;;;;;;;25.30;45.70;;;;;;5005024;28;19934;-67
2022/07/05 11:25:00;;;;;;;;;;;25.30;46.10;;;;;;5002172;28;19934;-68
2022/07/05 11:27:27;;;;;;;;;;;25.40;47.00;;;;;;5003676;28;19929;-66
2022/07/05 11:29:54;;;;;;;;;;;25.50;45.60;;;;;;5004592;28;19937;-68
2022/07/05 11:32:21;;;;;;;;;;;25.50;45.90;;;;;;5003176;28;19929;-64
2022/07/05 11:34:49;;;;;;;;;;;25.60;46.20;;;;;;5008888;28;20428;-65
2022/07/05 11:37:21;;;;;;;;;;;25.60;46.40;;;;;;5004740;28;19937;-67
2022/07/05 11:40:07;;;;;;;;;;;25.70;45.70;;;;;;5004365;28;19936;-65
2022/07/05 11:42:37;;;;;;;;;;;25.80;45.40;;;;;;5004501;28;19937;-68
2022/07/05 11:45:03;;;;;;;;;;;25.80;45.30;;;;;;5009467;28;19936;-67
2022/07/05 11:47:31;;;;;;;;;;;25.90;44.90;;;;;;5003857;28;19946;-65
2022/07/05 11:49:59;;;;;;;;;;;25.90;45.80;;;;;;5004583;28;19940;-65
2022/07/05 11:52:26;;;;;;;;;;;26.00;46.40;;;;;;5005876;28;19937;-67
2022/07/05 11:54:53;;;;;;;;;;;26.00;45.60;;;;;;5001676;28;20021;-66
2022/07/05 11:57:20;;;;;;;;;;;26.00;45.80;;;;;;5003920;28;19940;-64
2022/07/05 11:59:47;;;;;;;;;;;26.10;45.60;;;;;;5006070;28;19937;-64
2022/07/05 12:02:14;;;;;;;;;;;26.10;44.70;;;;;;5006871;28;19936;-68
2022/07/05 12:04:40;;;;;;;;;;;26.10;45.10;;;;;;5006065;28;19960;-66
2022/07/05 12:07:08;;;;;;;;;;;26.20;45.60;;;;;;5003465;28;19929;-68
2022/07/05 12:15:02;;;;;;;;;;;26.40;46.20;;;;;;4999808;28;20017;-67
2022/07/05 12:17:29;;;;;;;;;;;26.40;46.60;;;;;;5005452;28;19933;-66
2022/07/05 12:19:55;;;;;;;;;;;26.50;46.70;;;;;;5006063;28;19933;-66
2022/07/05 12:22:30;;;;;;;;;;;26.50;46.70;;;;;;5007455;28;19930;-67
2022/07/05 12:24:58;;;;;;;;;;;26.50;46.70;;;;;;5006748;28;20012;-65
2022/07/05 12:27:24;;;;;;;;;;;26.60;46.40;;;;;;5009170;28;19929;-67
2022/07/05 12:29:51;;;;;;;;;;;26.60;45.30;;;;;;5011049;28;19930;-66
2022/07/05 12:32:17;;;;;;;;;;;26.60;44.10;;;;;;5011112;28;19984;-67
2022/07/05 12:34:44;;;;;;;;;;;26.60;44.70;;;;;;5006457;28;19934;-67
2022/07/05 12:37:10;;;;;;;;;;;26.70;45.40;;;;;;5007762;28;19929;-65
2022/07/05 12:39:38;;;;;;;;;;;26.70;44.90;;;;;;5008637;28;20043;-69
2022/07/05 12:42:05;;;;;;;;;;;26.70;44.70;;;;;;5008262;28;19929;-68
2022/07/05 12:44:32;;;;;;;;;;;26.80;45.80;;;;;;5009757;28;19937;-68
2022/07/05 12:47:04;;;;;;;;;;;26.80;46.00;;;;;;5009685;28;19936;-67
2022/07/05 12:49:32;;;;;;;;;;;26.80;45.70;;;;;;5009089;28;20540;-67
2022/07/05 12:52:04;;;;;;;;;;;26.90;45.10;;;;;;5009323;28;19929;-68
2022/07/05 13:00:01;;;;;;;;;;;27.00;45.10;;;;;;5012404;28;19952;-68
2022/07/05 13:02:34;;;;;;;;;;;27.00;44.50;;;;;;5009978;28;20460;-68
2022/07/05 13:05:01;;;;;;;;;;;27.10;43.60;;;;;;5008266;28;19936;-67
2022/07/05 13:07:27;;;;;;;;;;;27.10;43.10;;;;;;5009932;28;19932;-66
2022/07/05 13:09:54;;;;;;;;;;;27.20;43.10;;;;;;5008604;28;20027;-67
2022/07/05 13:12:23;;;;;;;;;;;27.20;43.60;;;;;;5008975;28;19929;-65
2022/07/05 13:14:50;;;;;;;;;;;27.30;42.90;;;;;;5006297;28;20718;-64
2022/07/05 13:17:18;;;;;;;;;;;27.30;42.20;;;;;;5005346;28;19941;-67
2022/07/05 13:19:45;;;;;;;;;;;27.40;43.80;;;;;;5004918;28;19938;-66
2022/07/05 13:22:12;;;;;;;;;;;27.50;43.50;;;;;;5008954;28;19929;-67
2022/07/05 13:24:39;;;;;;;;;;;27.50;43.10;;;;;;5007156;28;19930;-66
2022/07/05 13:27:06;;;;;;;;;;;27.50;43.10;;;;;;5006355;28;19933;-66
2022/07/05 13:29:34;;;;;;;;;;;27.50;43.10;;;;;;5008388;28;19933;-68
2022/07/05 13:32:01;;;;;;;;;;;27.50;43.40;;;;;;5006165;28;19940;-68
2022/07/05 13:34:28;;;;;;;;;;;27.60;44.10;;;;;;5004293;28;19933;-69
2022/07/05 13:36:55;;;;;;;;;;;27.60;43.50;;;;;;5008701;28;19937;-67
2022/07/05 13:39:22;;;;;;;;;;;27.60;43.10;;;;;;5010255;28;19941;-67
2022/07/05 13:41:49;;;;;;;;;;;27.70;43.60;;;;;;5004836;28;20033;-67
2022/07/05 13:44:16;;;;;;;;;;;27.80;42.40;;;;;;5010787;28;19930;-65
2022/07/05 13:46:44;;;;;;;;;;;27.80;43.30;;;;;;5007240;28;19937;-68
2022/07/05 13:49:10;;;;;;;;;;;27.90;44.50;;;;;;5008646;28;19943;-68
2022/07/05 13:51:37;;;;;;;;;;;28.00;42.70;;;;;;5006414;28;19934;-68
2022/07/05 13:54:04;;;;;;;;;;;28.00;43.40;;;;;;5006584;28;19937;-68
2022/07/05 13:56:32;;;;;;;;;;;28.10;42.50;;;;;;5006190;28;19933;-66
2022/07/05 13:58:59;;;;;;;;;;;28.20;43.00;;;;;;5006568;28;21258;-67
2022/07/05 14:01:26;;;;;;;;;;;28.20;42.00;;;;;;5004790;28;19929;-65
2022/07/05 14:03:54;;;;;;;;;;;28.20;42.40;;;;;;5008471;28;19937;-69
2022/07/05 14:06:21;;;;;;;;;;;28.30;42.50;;;;;;5005752;28;19936;-67
2022/07/05 14:08:47;;;;;;;;;;;28.30;41.80;;;;;;5010012;28;20042;-65
2022/07/05 14:11:14;;;;;;;;;;;28.40;41.90;;;;;;5002693;28;20389;-67
2022/07/05 14:13:41;;;;;;;;;;;28.40;42.20;;;;;;5009112;28;19957;-65
2022/07/05 14:16:08;;;;;;;;;;;28.50;42.00;;;;;;5002570;28;19933;-65
2022/07/05 14:18:35;;;;;;;;;;;28.50;41.50;;;;;;5004800;28;20020;-69
2022/07/05 14:21:03;;;;;;;;;;;28.60;42.00;;;;;;5002814;28;19936;-68
2022/07/05 14:23:30;;;;;;;;;;;28.60;42.20;;;;;;5006479;28;20361;-69
2022/07/05 14:25:58;;;;;;;;;;;28.60;42.10;;;;;;5006724;28;21108;-66
2022/07/05 14:28:24;;;;;;;;;;;28.70;42.40;;;;;;5012471;28;19929;-67
2022/07/05 14:30:51;;;;;;;;;;;28.70;42.40;;;;;;5013462;28;19929;-67
2022/07/05 14:33:18;;;;;;;;;;;28.70;41.70;;;;;;5013800;28;19988;-67